sensor_id;sensor_type;location;lat;lon;timestamp;pressure;altitude;pressure_sealevel;temperature;humidity
61571;BME280;47463;49.884;10.010;2023-04-22T00:00:01;101310;;;9.9;74
61571;BME280;47463;49.884;10.010;2023-04-22T00:05:01;101300;;;9.9;74
61571;BME280;47463;49.884;10.010;2023-04-22T00:10:01;101300;;;10.1;73
61571;BME280;47463;49.884;10.010;2023-04-22T00:15:01;101290;;;10.2;73
61571;BME280;47463;49.884;10.010;2023-04-22T00:20:01;101280;;;10;74
61571;BME280;47463;49.884;10.010;2023-04-22T00:25:01;101280;;;9.8;75
61571;BME280;47463;49.884;10.010;2023-04-22T00:30:01;101270;;;9.7;75
61571;BME280;47463;49.884;10.010;2023-04-22T00:35:01;101270;;;9.7;75
61571;BME280;47463;49.884;10.010;2023-04-22T00:40:01;101280;;;9.7;75
61571;BME280;47463;49.884;10.010;2023-04-22T00:45:01;101280;;;9.6;75
61571;BME280;47463;49.884;10.010;2023-04-22T00:50:01;101270;;;9.5;76
61571;BME280;47463;49.884;10.010;2023-04-22T00:55:01;101270;;;9.6;76
61571;BME280;47463;49.884;10.010;2023-04-22T01:00:01;101280;;;9.7;75
61571;BME280;47463;49.884;10.010;2023-04-22T01:05:01;101280;;;9.8;75
61571;BME280;47463;49.884;10.010;2023-04-22T01:10:01;101280;;;9.8;75
61571;BME280;47463;49.884;10.010;2023-04-22T01:15:01;101290;;;9.8;75
61571;BME280;47463;49.884;10.010;2023-04-22T01:20:01;101290;;;10;74
61571;BME280;47463;49.884;10.010;2023-04-22T01:25:01;101290;;;10;74
61571;BME280;47463;49.884;10.010;2023-04-22T01:30:01;101290;;;9.8;75
61571;BME280;47463;49.884;10.010;2023-04-22T01:35:01;101290;;;9.7;75
61571;BME280;47463;49.884;10.010;2023-04-22T01:40:01;101300;;;9.6;76
61571;BME280;47463;49.884;10.010;2023-04-22T01:45:01;101300;;;9.7;75
61571;BME280;47463;49.884;10.010;2023-04-22T01:50:01;101310;;;9.6;76
61571;BME280;47463;49.884;10.010;2023-04-22T01:55:01;101300;;;9.8;75
61571;BME280;47463;49.884;10.010;2023-04-22T02:00:01;101300;;;9.8;75
61571;BME280;47463;49.884;10.010;2023-04-22T02:05:01;101310;;;9.9;75
61571;BME280;47463;49.884;10.010;2023-04-22T02:10:01;101320;;;9.8;75
61571;BME280;47463;49.884;10.010;2023-04-22T02:15:01;101320;;;9.7;75
61571;BME280;47463;49.884;10.010;2023-04-22T02:20:01;101330;;;9.8;75
61571;BME280;47463;49.884;10.010;2023-04-22T02:25:01;101320;;;9.8;75
61571;BME280;47463;49.884;10.010;2023-04-22T02:30:01;101320;;;9.6;76
61571;BME280;47463;49.884;10.010;2023-04-22T02:35:01;101320;;;9.5;77
61571;BME280;47463;49.884;10.010;2023-04-22T02:40:01;101310;;;9.5;77
61571;BME280;47463;49.884;10.010;2023-04-22T02:45:01;101310;;;9.5;77
61571;BME280;47463;49.884;10.010;2023-04-22T02:50:01;101320;;;9.5;77
61571;BME280;47463;49.884;10.010;2023-04-22T02:55:01;101310;;;9.5;77
61571;BME280;47463;49.884;10.010;2023-04-22T03:00:01;101310;;;9.4;77
61571;BME280;47463;49.884;10.010;2023-04-22T03:05:01;101310;;;9.4;77
61571;BME280;47463;49.884;10.010;2023-04-22T03:10:01;101320;;;9.4;77
61571;BME280;47463;49.884;10.010;2023-04-22T03:15:01;101310;;;9.4;77
61571;BME280;47463;49.884;10.010;2023-04-22T03:20:01;101320;;;9.3;78
61571;BME280;47463;49.884;10.010;2023-04-22T03:25:01;101320;;;9.2;78
61571;BME280;47463;49.884;10.010;2023-04-22T03:30:01;101320;;;9.3;78
61571;BME280;47463;49.884;10.010;2023-04-22T03:35:01;101320;;;9.2;78
61571;BME280;47463;49.884;10.010;2023-04-22T03:40:01;101320;;;9.4;77
61571;BME280;47463;49.884;10.010;2023-04-22T03:45:01;101320;;;9.4;77
61571;BME280;47463;49.884;10.010;2023-04-22T03:50:01;101310;;;9.4;77
61571;BME280;47463;49.884;10.010;2023-04-22T03:55:01;101310;;;9.4;77
61571;BME280;47463;49.884;10.010;2023-04-22T04:00:01;101310;;;9.4;77
61571;BME280;47463;49.884;10.010;2023-04-22T04:05:01;101310;;;9.3;78
61571;BME280;47463;49.884;10.010;2023-04-22T04:10:01;101310;;;9.3;77
61571;BME280;47463;49.884;10.010;2023-04-22T04:15:01;101310;;;9.3;77
61571;BME280;47463;49.884;10.010;2023-04-22T04:20:01;101320;;;9.3;78
61571;BME280;47463;49.884;10.010;2023-04-22T04:25:01;101320;;;9.3;78
61571;BME280;47463;49.884;10.010;2023-04-22T04:30:01;101320;;;9.6;77
61571;BME280;47463;49.884;10.010;2023-04-22T04:35:01;101320;;;9.6;76
61571;BME280;47463;49.884;10.010;2023-04-22T04:40:01;101320;;;9.7;76
61571;BME280;47463;49.884;10.010;2023-04-22T04:45:01;101320;;;9.8;76
61571;BME280;47463;49.884;10.010;2023-04-22T04:50:01;101330;;;9.8;76
61571;BME280;47463;49.884;10.010;2023-04-22T04:55:01;101330;;;9.8;76
61571;BME280;47463;49.884;10.010;2023-04-22T05:00:01;101330;;;10.2;75
61571;BME280;47463;49.884;10.010;2023-04-22T05:05:01;101340;;;10.6;74
61571;BME280;47463;49.884;10.010;2023-04-22T05:10:01;101330;;;10.9;72
61571;BME280;47463;49.884;10.010;2023-04-22T05:15:01;101330;;;11.4;71
61571;BME280;47463;49.884;10.010;2023-04-22T05:20:01;101340;;;12.2;69
61571;BME280;47463;49.884;10.010;2023-04-22T05:25:01;101330;;;12.5;67
61571;BME280;47463;49.884;10.010;2023-04-22T05:30:01;101340;;;12.7;66
61571;BME280;47463;49.884;10.010;2023-04-22T05:35:01;101340;;;12.7;65
61571;BME280;47463;49.884;10.010;2023-04-22T05:40:01;101350;;;12.7;65
61571;BME280;47463;49.884;10.010;2023-04-22T05:45:01;101350;;;12.4;66
61571;BME280;47463;49.884;10.010;2023-04-22T05:50:01;101340;;;12.3;66
61571;BME280;47463;49.884;10.010;2023-04-22T05:55:01;101350;;;12.6;66
61571;BME280;47463;49.884;10.010;2023-04-22T06:00:01;101350;;;13.1;66
61571;BME280;47463;49.884;10.010;2023-04-22T06:05:01;101350;;;13.2;65
61571;BME280;47463;49.884;10.010;2023-04-22T06:10:01;101340;;;12.9;64
61571;BME280;47463;49.884;10.010;2023-04-22T06:15:01;101340;;;12.7;65
61571;BME280;47463;49.884;10.010;2023-04-22T06:20:01;101330;;;12.8;65
61571;BME280;47463;49.884;10.010;2023-04-22T06:25:01;101330;;;12.6;67
61571;BME280;47463;49.884;10.010;2023-04-22T06:30:01;101330;;;12.8;67
61571;BME280;47463;49.884;10.010;2023-04-22T06:35:01;101310;;;13;66
61571;BME280;47463;49.884;10.010;2023-04-22T06:40:01;101320;;;13;67
61571;BME280;47463;49.884;10.010;2023-04-22T06:45:01;101320;;;13.1;67
61571;BME280;47463;49.884;10.010;2023-04-22T06:50:01;101320;;;13.3;67
61571;BME280;47463;49.884;10.010;2023-04-22T06:55:01;101320;;;13.3;66
61571;BME280;47463;49.884;10.010;2023-04-22T07:00:01;101320;;;13.8;65
61571;BME280;47463;49.884;10.010;2023-04-22T07:05:01;101310;;;14.1;62
61571;BME280;47463;49.884;10.010;2023-04-22T07:10:01;101310;;;14.3;61
61571;BME280;47463;49.884;10.010;2023-04-22T07:15:01;101320;;;14.6;61
61571;BME280;47463;49.884;10.010;2023-04-22T07:20:01;101330;;;15;61
61571;BME280;47463;49.884;10.010;2023-04-22T07:25:01;101320;;;15.2;60
61571;BME280;47463;49.884;10.010;2023-04-22T07:30:01;101320;;;15.1;59
61571;BME280;47463;49.884;10.010;2023-04-22T07:35:01;101310;;;15.3;60
61571;BME280;47463;49.884;10.010;2023-04-22T07:40:01;101310;;;15.7;60
61571;BME280;47463;49.884;10.010;2023-04-22T07:45:01;101310;;;15.8;59
61571;BME280;47463;49.884;10.010;2023-04-22T07:50:01;101310;;;15.4;59
61571;BME280;47463;49.884;10.010;2023-04-22T07:55:01;101320;;;15.6;58
61571;BME280;47463;49.884;10.010;2023-04-22T08:00:01;101320;;;15.7;58
61571;BME280;47463;49.884;10.010;2023-04-22T08:05:01;101330;;;15.8;58
61571;BME280;47463;49.884;10.010;2023-04-22T08:10:01;101310;;;16;57
61571;BME280;47463;49.884;10.010;2023-04-22T08:15:01;101310;;;15.7;57
61571;BME280;47463;49.884;10.010;2023-04-22T08:20:01;101300;;;15.7;57
61571;BME280;47463;49.884;10.010;2023-04-22T08:25:01;101300;;;15.7;57
61571;BME280;47463;49.884;10.010;2023-04-22T08:30:01;101290;;;15.6;57
61571;BME280;47463;49.884;10.010;2023-04-22T08:35:01;101300;;;15.8;57
61571;BME280;47463;49.884;10.010;2023-04-22T08:40:01;101290;;;15.8;57
61571;BME280;47463;49.884;10.010;2023-04-22T08:45:01;101280;;;16.2;56
61571;BME280;47463;49.884;10.010;2023-04-22T08:50:01;101280;;;16.4;56
61571;BME280;47463;49.884;10.010;2023-04-22T08:55:01;101280;;;16.8;56
61571;BME280;47463;49.884;10.010;2023-04-22T09:00:01;101280;;;16.7;56
61571;BME280;47463;49.884;10.010;2023-04-22T09:05:01;101270;;;16.8;56
61571;BME280;47463;49.884;10.010;2023-04-22T09:10:01;101260;;;16.9;55
61571;BME280;47463;49.884;10.010;2023-04-22T09:15:01;101260;;;16.8;55
61571;BME280;47463;49.884;10.010;2023-04-22T09:20:01;101260;;;17.3;55
61571;BME280;47463;49.884;10.010;2023-04-22T09:25:01;101250;;;17.8;54
61571;BME280;47463;49.884;10.010;2023-04-22T09:30:02;101250;;;17.7;54
61571;BME280;47463;49.884;10.010;2023-04-22T09:35:01;101250;;;17.7;54
61571;BME280;47463;49.884;10.010;2023-04-22T09:40:01;101240;;;17.8;53
61571;BME280;47463;49.884;10.010;2023-04-22T09:45:01;101250;;;17.9;53
61571;BME280;47463;49.884;10.010;2023-04-22T09:50:02;101240;;;18.6;52
61571;BME280;47463;49.884;10.010;2023-04-22T09:55:01;101230;;;19;51
61571;BME280;47463;49.884;10.010;2023-04-22T10:00:01;101240;;;18.9;51
61571;BME280;47463;49.884;10.010;2023-04-22T10:05:01;101230;;;19;50
61571;BME280;47463;49.884;10.010;2023-04-22T10:10:01;101220;;;19.4;51
61571;BME280;47463;49.884;10.010;2023-04-22T10:15:01;101230;;;19.5;50
61571;BME280;47463;49.884;10.010;2023-04-22T10:20:01;101220;;;19.3;49
61571;BME280;47463;49.884;10.010;2023-04-22T10:25:01;101220;;;19.1;51
61571;BME280;47463;49.884;10.010;2023-04-22T10:30:01;101220;;;19.2;51
61571;BME280;47463;49.884;10.010;2023-04-22T10:35:09;101220;;;19.4;50
61571;BME280;47463;49.884;10.010;2023-04-22T10:40:05;101220;;;19.6;51
61571;BME280;47463;49.884;10.010;2023-04-22T10:45:02;101210;;;19.9;50
61571;BME280;47463;49.884;10.010;2023-04-22T10:50:09;101200;;;20.1;50
61571;BME280;47463;49.884;10.010;2023-04-22T10:55:01;101210;;;20.3;49
61571;BME280;47463;49.884;10.010;2023-04-22T11:00:02;101190;;;20.8;48
61571;BME280;47463;49.884;10.010;2023-04-22T11:05:32;101180;;;20.7;49
61571;BME280;47463;49.884;10.010;2023-04-22T11:10:03;101180;;;20.2;49
61571;BME280;47463;49.884;10.010;2023-04-22T11:15:03;101170;;;20.1;49
61571;BME280;47463;49.884;10.010;2023-04-22T11:20:01;101160;;;20.2;49
61571;BME280;47463;49.884;10.010;2023-04-22T11:25:01;101160;;;20.3;49
61571;BME280;47463;49.884;10.010;2023-04-22T11:30:01;101170;;;20;48
61571;BME280;47463;49.884;10.010;2023-04-22T11:35:01;101160;;;19.8;47
61571;BME280;47463;49.884;10.010;2023-04-22T11:40:01;101160;;;20.1;48
61571;BME280;47463;49.884;10.010;2023-04-22T11:45:01;101150;;;20.2;48
61571;BME280;47463;49.884;10.010;2023-04-22T11:50:01;101150;;;20.2;48
61571;BME280;47463;49.884;10.010;2023-04-22T11:55:01;101150;;;20.4;49
61571;BME280;47463;49.884;10.010;2023-04-22T12:00:01;101140;;;20.5;48
61571;BME280;47463;49.884;10.010;2023-04-22T12:05:01;101130;;;20.7;47
61571;BME280;47463;49.884;10.010;2023-04-22T12:10:01;101130;;;20.8;46
61571;BME280;47463;49.884;10.010;2023-04-22T12:15:05;101120;;;20.9;48
61571;BME280;47463;49.884;10.010;2023-04-22T12:20:01;101120;;;21;46
61571;BME280;47463;49.884;10.010;2023-04-22T12:25:01;101120;;;21.2;46
61571;BME280;47463;49.884;10.010;2023-04-22T12:30:01;101110;;;21.1;44
61571;BME280;47463;49.884;10.010;2023-04-22T12:35:01;101110;;;21.4;46
61571;BME280;47463;49.884;10.010;2023-04-22T12:40:01;101110;;;21.4;45
61571;BME280;47463;49.884;10.010;2023-04-22T12:45:01;101090;;;21.7;41
61571;BME280;47463;49.884;10.010;2023-04-22T12:50:01;101090;;;22.1;41
61571;BME280;47463;49.884;10.010;2023-04-22T12:55:01;101090;;;22.1;39
61571;BME280;47463;49.884;10.010;2023-04-22T13:00:01;101080;;;22;38
61571;BME280;47463;49.884;10.010;2023-04-22T13:05:01;101080;;;21.6;39
61571;BME280;47463;49.884;10.010;2023-04-22T13:10:01;101070;;;22.1;40
61571;BME280;47463;49.884;10.010;2023-04-22T13:15:01;101060;;;21.9;40
61571;BME280;47463;49.884;10.010;2023-04-22T13:20:01;101060;;;22.1;38
61571;BME280;47463;49.884;10.010;2023-04-22T13:25:01;101070;;;22;39
61571;BME280;47463;49.884;10.010;2023-04-22T13:30:01;101060;;;22.4;39
61571;BME280;47463;49.884;10.010;2023-04-22T13:35:01;101040;;;22.4;38
61571;BME280;47463;49.884;10.010;2023-04-22T13:40:01;101040;;;22.2;36
61571;BME280;47463;49.884;10.010;2023-04-22T13:45:01;101030;;;21.7;36
61571;BME280;47463;49.884;10.010;2023-04-22T13:50:01;101030;;;22.4;37
61571;BME280;47463;49.884;10.010;2023-04-22T13:55:01;101010;;;22.5;35
61571;BME280;47463;49.884;10.010;2023-04-22T14:00:01;101010;;;22.8;36
61571;BME280;47463;49.884;10.010;2023-04-22T14:05:01;101010;;;22.2;35
61571;BME280;47463;49.884;10.010;2023-04-22T14:10:01;101000;;;21.8;36
61571;BME280;47463;49.884;10.010;2023-04-22T14:15:01;100990;;;21.8;37
61571;BME280;47463;49.884;10.010;2023-04-22T14:20:01;101000;;;21.5;36
61571;BME280;47463;49.884;10.010;2023-04-22T14:25:01;100990;;;21.4;37
61571;BME280;47463;49.884;10.010;2023-04-22T14:30:01;100990;;;21.2;37
61571;BME280;47463;49.884;10.010;2023-04-22T14:35:01;100990;;;21.3;38
61571;BME280;47463;49.884;10.010;2023-04-22T14:40:01;100990;;;21.3;37
61571;BME280;47463;49.884;10.010;2023-04-22T14:45:01;100990;;;21.2;38
61571;BME280;47463;49.884;10.010;2023-04-22T14:50:01;100980;;;21;39
61571;BME280;47463;49.884;10.010;2023-04-22T14:55:01;100990;;;21;40
61571;BME280;47463;49.884;10.010;2023-04-22T15:00:01;100980;;;21.1;39
61571;BME280;47463;49.884;10.010;2023-04-22T15:05:01;100980;;;21;39
61571;BME280;47463;49.884;10.010;2023-04-22T15:10:01;100980;;;20.9;38
61571;BME280;47463;49.884;10.010;2023-04-22T15:15:01;100980;;;20.8;39
61571;BME280;47463;49.884;10.010;2023-04-22T15:20:01;100980;;;20.8;39
61571;BME280;47463;49.884;10.010;2023-04-22T15:25:01;100990;;;20.6;38
61571;BME280;47463;49.884;10.010;2023-04-22T15:30:01;100990;;;20.4;38
61571;BME280;47463;49.884;10.010;2023-04-22T15:35:01;100980;;;20.6;38
61571;BME280;47463;49.884;10.010;2023-04-22T15:40:01;100980;;;20.4;40
61571;BME280;47463;49.884;10.010;2023-04-22T15:45:01;100980;;;20.3;40
61571;BME280;47463;49.884;10.010;2023-04-22T15:50:01;100980;;;20.2;40
61571;BME280;47463;49.884;10.010;2023-04-22T15:55:01;100970;;;20.1;41
61571;BME280;47463;49.884;10.010;2023-04-22T16:00:01;100970;;;20;41
61571;BME280;47463;49.884;10.010;2023-04-22T16:05:01;100970;;;19.7;43
61571;BME280;47463;49.884;10.010;2023-04-22T16:10:01;100990;;;19.7;43
61571;BME280;47463;49.884;10.010;2023-04-22T16:15:01;100990;;;19.7;43
61571;BME280;47463;49.884;10.010;2023-04-22T16:20:01;100980;;;19.7;42
61571;BME280;47463;49.884;10.010;2023-04-22T16:25:01;100990;;;19.7;43
61571;BME280;47463;49.884;10.010;2023-04-22T16:30:01;100990;;;19.6;43
61571;BME280;47463;49.884;10.010;2023-04-22T16:35:01;100990;;;19.5;44
61571;BME280;47463;49.884;10.010;2023-04-22T16:40:01;101000;;;19.3;44
61571;BME280;47463;49.884;10.010;2023-04-22T16:45:01;101000;;;19.2;45
61571;BME280;47463;49.884;10.010;2023-04-22T16:50:01;100990;;;19;46
61571;BME280;47463;49.884;10.010;2023-04-22T16:55:01;100990;;;18.9;47
61571;BME280;47463;49.884;10.010;2023-04-22T17:00:01;100990;;;18.8;47
61571;BME280;47463;49.884;10.010;2023-04-22T17:05:01;100990;;;18.6;48
61571;BME280;47463;49.884;10.010;2023-04-22T17:10:01;100990;;;18.7;47
61571;BME280;47463;49.884;10.010;2023-04-22T17:15:01;100990;;;18.5;49
61571;BME280;47463;49.884;10.010;2023-04-22T17:20:01;100990;;;18.4;48
61571;BME280;47463;49.884;10.010;2023-04-22T17:25:01;100990;;;18.3;48
61571;BME280;47463;49.884;10.010;2023-04-22T17:30:01;101000;;;18.3;49
61571;BME280;47463;49.884;10.010;2023-04-22T17:35:01;101000;;;18.2;49
61571;BME280;47463;49.884;10.010;2023-04-22T17:40:01;100990;;;18.2;49
61571;BME280;47463;49.884;10.010;2023-04-22T17:45:01;101000;;;18.1;49
61571;BME280;47463;49.884;10.010;2023-04-22T17:50:01;101000;;;17.9;50
61571;BME280;47463;49.884;10.010;2023-04-22T17:55:01;101000;;;17.8;50
61571;BME280;47463;49.884;10.010;2023-04-22T18:00:01;101000;;;17.7;50
61571;BME280;47463;49.884;10.010;2023-04-22T18:05:01;101000;;;17.6;51
61571;BME280;47463;49.884;10.010;2023-04-22T18:10:01;101000;;;17.5;51
61571;BME280;47463;49.884;10.010;2023-04-22T18:15:01;101010;;;17.5;50
61571;BME280;47463;49.884;10.010;2023-04-22T18:20:01;101020;;;17.5;50
61571;BME280;47463;49.884;10.010;2023-04-22T18:25:01;101020;;;17.5;50
61571;BME280;47463;49.884;10.010;2023-04-22T18:30:01;101030;;;17.5;50
61571;BME280;47463;49.884;10.010;2023-04-22T18:35:01;101030;;;17.6;49
61571;BME280;47463;49.884;10.010;2023-04-22T18:40:01;101040;;;17.5;50
61571;BME280;47463;49.884;10.010;2023-04-22T18:45:01;101030;;;17.4;50
61571;BME280;47463;49.884;10.010;2023-04-22T18:50:01;101040;;;17.2;51
61571;BME280;47463;49.884;10.010;2023-04-22T18:55:01;101050;;;17.1;52
61571;BME280;47463;49.884;10.010;2023-04-22T19:00:01;101060;;;17.2;51
61571;BME280;47463;49.884;10.010;2023-04-22T19:05:01;101060;;;17.2;51
61571;BME280;47463;49.884;10.010;2023-04-22T19:10:01;101060;;;17.2;51
61571;BME280;47463;49.884;10.010;2023-04-22T19:15:01;101060;;;17.3;50
61571;BME280;47463;49.884;10.010;2023-04-22T19:20:01;101060;;;17.3;50
61571;BME280;47463;49.884;10.010;2023-04-22T19:25:01;101080;;;17.1;52
61571;BME280;47463;49.884;10.010;2023-04-22T19:30:01;101080;;;16.4;56
61571;BME280;47463;49.884;10.010;2023-04-22T19:35:01;101090;;;15.9;58
61571;BME280;47463;49.884;10.010;2023-04-22T19:40:01;101090;;;15.8;58
61571;BME280;47463;49.884;10.010;2023-04-22T19:45:01;101090;;;15.5;60
61571;BME280;47463;49.884;10.010;2023-04-22T19:50:01;101090;;;15.4;61
61571;BME280;47463;49.884;10.010;2023-04-22T19:55:01;101090;;;15.5;61
61571;BME280;47463;49.884;10.010;2023-04-22T20:00:01;101080;;;15.7;59
61571;BME280;47463;49.884;10.010;2023-04-22T20:05:01;101080;;;15.8;58
61571;BME280;47463;49.884;10.010;2023-04-22T20:10:01;101070;;;15.7;59
61571;BME280;47463;49.884;10.010;2023-04-22T20:15:01;101070;;;15.5;60
61571;BME280;47463;49.884;10.010;2023-04-22T20:20:01;101070;;;15.2;61
61571;BME280;47463;49.884;10.010;2023-04-22T20:25:01;101080;;;15.1;62
61571;BME280;47463;49.884;10.010;2023-04-22T20:30:01;101090;;;14.7;63
61571;BME280;47463;49.884;10.010;2023-04-22T20:35:01;101090;;;14.6;63
61571;BME280;47463;49.884;10.010;2023-04-22T20:40:01;101090;;;15;62
61571;BME280;47463;49.884;10.010;2023-04-22T20:45:01;101100;;;15.1;61
61571;BME280;47463;49.884;10.010;2023-04-22T20:50:01;101100;;;15.1;61
61571;BME280;47463;49.884;10.010;2023-04-22T20:55:01;101090;;;14.9;62
61571;BME280;47463;49.884;10.010;2023-04-22T21:00:01;101100;;;15;61
61571;BME280;47463;49.884;10.010;2023-04-22T21:05:01;101100;;;14.8;62
61571;BME280;47463;49.884;10.010;2023-04-22T21:10:01;101100;;;14.8;62
61571;BME280;47463;49.884;10.010;2023-04-22T21:15:01;101100;;;14.7;63
61571;BME280;47463;49.884;10.010;2023-04-22T21:20:01;101100;;;14.7;62
61571;BME280;47463;49.884;10.010;2023-04-22T21:25:01;101100;;;14.7;62
61571;BME280;47463;49.884;10.010;2023-04-22T21:30:01;101100;;;14.4;64
61571;BME280;47463;49.884;10.010;2023-04-22T21:35:01;101110;;;14.4;64
61571;BME280;47463;49.884;10.010;2023-04-22T21:40:01;101130;;;14.4;64
61571;BME280;47463;49.884;10.010;2023-04-22T21:45:01;101120;;;14.5;63
61571;BME280;47463;49.884;10.010;2023-04-22T21:50:01;101130;;;14.5;63
61571;BME280;47463;49.884;10.010;2023-04-22T21:55:01;101130;;;14.5;62
61571;BME280;47463;49.884;10.010;2023-04-22T22:00:01;101120;;;14.5;62
61571;BME280;47463;49.884;10.010;2023-04-22T22:05:01;101120;;;14.5;62
61571;BME280;47463;49.884;10.010;2023-04-22T22:10:01;101130;;;14.2;64
61571;BME280;47463;49.884;10.010;2023-04-22T22:15:01;101130;;;14.2;64
61571;BME280;47463;49.884;10.010;2023-04-22T22:20:01;101130;;;14.1;65
61571;BME280;47463;49.884;10.010;2023-04-22T22:25:01;101120;;;14;65
61571;BME280;47463;49.884;10.010;2023-04-22T22:30:01;101130;;;13.9;66
61571;BME280;47463;49.884;10.010;2023-04-22T22:35:01;101130;;;13.9;65
61571;BME280;47463;49.884;10.010;2023-04-22T22:40:01;101120;;;13.9;65
61571;BME280;47463;49.884;10.010;2023-04-22T22:45:01;101130;;;13.9;66
61571;BME280;47463;49.884;10.010;2023-04-22T22:50:01;101130;;;13.6;67
61571;BME280;47463;49.884;10.010;2023-04-22T22:55:01;101130;;;13.6;67
61571;BME280;47463;49.884;10.010;2023-04-22T23:00:01;101140;;;13.4;67
61571;BME280;47463;49.884;10.010;2023-04-22T23:05:01;101140;;;13.4;68
61571;BME280;47463;49.884;10.010;2023-04-22T23:10:01;101140;;;13.4;68
61571;BME280;47463;49.884;10.010;2023-04-22T23:15:01;101150;;;13.3;69
61571;BME280;47463;49.884;10.010;2023-04-22T23:20:01;101150;;;13.3;69
61571;BME280;47463;49.884;10.010;2023-04-22T23:25:01;101140;;;13.2;69
61571;BME280;47463;49.884;10.010;2023-04-22T23:30:01;101130;;;13.2;70
61571;BME280;47463;49.884;10.010;2023-04-22T23:35:01;101130;;;13.1;70
61571;BME280;47463;49.884;10.010;2023-04-22T23:40:01;101140;;;13.1;70
61571;BME280;47463;49.884;10.010;2023-04-22T23:45:01;101140;;;13.2;70
61571;BME280;47463;49.884;10.010;2023-04-22T23:50:01;101130;;;13.1;70
61571;BME280;47463;49.884;10.010;2023-04-22T23:55:01;101140;;;13;71
